Conception, Missouri
Current Conditions -  °F | °C
As of 7:53 AM on Sunday 25 Jan 2015 (Local Time) from KSTJ Reporting Station
Overcast Overcast  
Wind Chill: -5°   Ceiling: 1500
Heat Index:   Visibility: 10mi
Dew Point:   Wind: 26mph
Humidity: 86%   Direction: 330°NNW
Pressure: 29.74"   Gusts: 35mph
Location:  40.24°N, 94.69°W
Report Text: KSTJ 251353Z 33023G30KT 10SM OVC015 02/00 A2974 RMK AO2 PK WND 33033/1338 RAE1256 SLP073 P0000 T00220000 $
Loading
Personal Weather Stations






























Interactive Weather Map New forecast layout! Learn more

10-Day Weather Forecast

Advertisements
Track Severe Weather on mobile